sensor_id;sensor_type;location;lat;lon;timestamp;P1;durP1;ratioP1;P2;durP2;ratioP2
59093;SDS011;44880;52.814;18.270;2023-04-25T00:01:31;13.70;;;7.70;;
59093;SDS011;44880;52.814;18.270;2023-04-25T00:04:03;11.40;;;6.80;;
59093;SDS011;44880;52.814;18.270;2023-04-25T00:09:06;12.40;;;7.70;;
59093;SDS011;44880;52.814;18.270;2023-04-25T00:11:39;14.30;;;7.60;;
59093;SDS011;44880;52.814;18.270;2023-04-25T00:14:11;12.60;;;6.90;;
59093;SDS011;44880;52.814;18.270;2023-04-25T00:16:43;13.20;;;7.80;;
59093;SDS011;44880;52.814;18.270;2023-04-25T00:19:14;13.00;;;6.80;;
59093;SDS011;44880;52.814;18.270;2023-04-25T00:21:46;10.80;;;6.60;;
59093;SDS011;44880;52.814;18.270;2023-04-25T00:24:18;11.20;;;5.90;;
59093;SDS011;44880;52.814;18.270;2023-04-25T00:26:49;14.00;;;7.20;;
59093;SDS011;44880;52.814;18.270;2023-04-25T00:29:21;11.30;;;6.70;;
59093;SDS011;44880;52.814;18.270;2023-04-25T00:31:53;11.50;;;6.20;;
59093;SDS011;44880;52.814;18.270;2023-04-25T00:34:25;11.40;;;6.30;;
59093;SDS011;44880;52.814;18.270;2023-04-25T00:36:57;11.20;;;5.90;;
59093;SDS011;44880;52.814;18.270;2023-04-25T00:39:30;10.00;;;5.50;;
59093;SDS011;44880;52.814;18.270;2023-04-25T00:42:01;9.80;;;5.50;;
59093;SDS011;44880;52.814;18.270;2023-04-25T00:44:34;9.90;;;5.50;;
59093;SDS011;44880;52.814;18.270;2023-04-25T00:47:06;10.20;;;5.40;;
59093;SDS011;44880;52.814;18.270;2023-04-25T00:49:38;11.10;;;5.90;;
59093;SDS011;44880;52.814;18.270;2023-04-25T00:52:10;11.50;;;5.00;;
59093;SDS011;44880;52.814;18.270;2023-04-25T00:54:42;9.20;;;4.50;;
59093;SDS011;44880;52.814;18.270;2023-04-25T00:57:14;9.10;;;4.20;;
59093;SDS011;44880;52.814;18.270;2023-04-25T01:02:16;9.20;;;4.60;;
59093;SDS011;44880;52.814;18.270;2023-04-25T01:07:18;9.30;;;4.70;;
59093;SDS011;44880;52.814;18.270;2023-04-25T01:09:50;10.00;;;5.30;;
59093;SDS011;44880;52.814;18.270;2023-04-25T01:12:22;9.80;;;4.90;;
59093;SDS011;44880;52.814;18.270;2023-04-25T01:14:54;10.10;;;4.80;;
59093;SDS011;44880;52.814;18.270;2023-04-25T01:17:27;9.50;;;4.90;;
59093;SDS011;44880;52.814;18.270;2023-04-25T01:19:59;9.30;;;4.30;;
59093;SDS011;44880;52.814;18.270;2023-04-25T01:22:35;9.20;;;5.10;;
59093;SDS011;44880;52.814;18.270;2023-04-25T01:25:08;9.30;;;4.90;;
59093;SDS011;44880;52.814;18.270;2023-04-25T01:27:39;9.80;;;4.50;;
59093;SDS011;44880;52.814;18.270;2023-04-25T01:30:11;9.30;;;4.70;;
59093;SDS011;44880;52.814;18.270;2023-04-25T01:32:43;10.70;;;4.70;;
59093;SDS011;44880;52.814;18.270;2023-04-25T01:35:15;9.90;;;4.60;;
59093;SDS011;44880;52.814;18.270;2023-04-25T01:37:47;9.60;;;4.60;;
59093;SDS011;44880;52.814;18.270;2023-04-25T01:40:19;8.40;;;4.20;;
59093;SDS011;44880;52.814;18.270;2023-04-25T01:42:52;7.70;;;3.70;;
59093;SDS011;44880;52.814;18.270;2023-04-25T01:45:24;10.30;;;4.20;;
59093;SDS011;44880;52.814;18.270;2023-04-25T01:47:58;8.80;;;4.20;;
59093;SDS011;44880;52.814;18.270;2023-04-25T01:50:30;9.50;;;4.20;;
59093;SDS011;44880;52.814;18.270;2023-04-25T01:53:02;9.20;;;4.00;;
59093;SDS011;44880;52.814;18.270;2023-04-25T01:55:33;8.70;;;4.10;;
59093;SDS011;44880;52.814;18.270;2023-04-25T01:58:09;8.80;;;3.60;;
59093;SDS011;44880;52.814;18.270;2023-04-25T02:01:01;7.90;;;3.20;;
59093;SDS011;44880;52.814;18.270;2023-04-25T02:03:37;8.60;;;3.20;;
59093;SDS011;44880;52.814;18.270;2023-04-25T02:06:14;7.90;;;3.10;;
59093;SDS011;44880;52.814;18.270;2023-04-25T02:08:47;7.30;;;3.20;;
59093;SDS011;44880;52.814;18.270;2023-04-25T02:11:19;8.30;;;3.50;;
59093;SDS011;44880;52.814;18.270;2023-04-25T02:14:11;7.50;;;3.60;;
59093;SDS011;44880;52.814;18.270;2023-04-25T02:16:49;8.00;;;3.30;;
59093;SDS011;44880;52.814;18.270;2023-04-25T02:19:21;7.70;;;2.90;;
59093;SDS011;44880;52.814;18.270;2023-04-25T02:21:53;7.30;;;3.00;;
59093;SDS011;44880;52.814;18.270;2023-04-25T02:26:57;7.30;;;3.10;;
59093;SDS011;44880;52.814;18.270;2023-04-25T02:29:30;8.60;;;2.80;;
59093;SDS011;44880;52.814;18.270;2023-04-25T02:32:01;6.80;;;2.70;;
59093;SDS011;44880;52.814;18.270;2023-04-25T02:34:33;6.80;;;2.40;;
59093;SDS011;44880;52.814;18.270;2023-04-25T02:39:35;6.90;;;2.70;;
59093;SDS011;44880;52.814;18.270;2023-04-25T02:42:07;6.40;;;2.40;;
59093;SDS011;44880;52.814;18.270;2023-04-25T02:44:38;6.10;;;2.30;;
59093;SDS011;44880;52.814;18.270;2023-04-25T02:47:10;8.10;;;2.20;;
59093;SDS011;44880;52.814;18.270;2023-04-25T02:49:41;6.80;;;2.20;;
59093;SDS011;44880;52.814;18.270;2023-04-25T02:52:13;6.50;;;2.30;;
59093;SDS011;44880;52.814;18.270;2023-04-25T02:54:46;6.70;;;2.50;;
59093;SDS011;44880;52.814;18.270;2023-04-25T02:57:18;6.50;;;2.60;;
59093;SDS011;44880;52.814;18.270;2023-04-25T02:59:50;6.00;;;2.30;;
59093;SDS011;44880;52.814;18.270;2023-04-25T03:02:22;6.20;;;2.20;;
59093;SDS011;44880;52.814;18.270;2023-04-25T03:04:53;8.40;;;2.10;;
59093;SDS011;44880;52.814;18.270;2023-04-25T03:07:26;9.00;;;2.40;;
59093;SDS011;44880;52.814;18.270;2023-04-25T03:09:58;7.30;;;2.10;;
59093;SDS011;44880;52.814;18.270;2023-04-25T03:12:31;6.80;;;2.40;;
59093;SDS011;44880;52.814;18.270;2023-04-25T03:15:03;7.50;;;2.20;;
59093;SDS011;44880;52.814;18.270;2023-04-25T03:17:36;6.60;;;2.30;;
59093;SDS011;44880;52.814;18.270;2023-04-25T03:20:08;7.30;;;2.20;;
59093;SDS011;44880;52.814;18.270;2023-04-25T03:22:41;6.40;;;2.00;;
59093;SDS011;44880;52.814;18.270;2023-04-25T03:25:13;4.50;;;1.70;;
59093;SDS011;44880;52.814;18.270;2023-04-25T03:27:47;6.90;;;2.10;;
59093;SDS011;44880;52.814;18.270;2023-04-25T03:30:20;8.10;;;2.70;;
59093;SDS011;44880;52.814;18.270;2023-04-25T03:32:52;5.90;;;1.90;;
59093;SDS011;44880;52.814;18.270;2023-04-25T03:35:24;5.60;;;2.20;;
59093;SDS011;44880;52.814;18.270;2023-04-25T03:37:57;6.30;;;2.10;;
59093;SDS011;44880;52.814;18.270;2023-04-25T03:40:32;6.60;;;1.80;;
59093;SDS011;44880;52.814;18.270;2023-04-25T03:43:16;6.40;;;2.00;;
59093;SDS011;44880;52.814;18.270;2023-04-25T03:45:58;5.60;;;1.90;;
59093;SDS011;44880;52.814;18.270;2023-04-25T03:48:29;6.60;;;1.90;;
59093;SDS011;44880;52.814;18.270;2023-04-25T03:51:03;7.20;;;2.30;;
59093;SDS011;44880;52.814;18.270;2023-04-25T03:53:39;6.40;;;2.10;;
59093;SDS011;44880;52.814;18.270;2023-04-25T03:56:17;5.30;;;1.90;;
59093;SDS011;44880;52.814;18.270;2023-04-25T03:58:50;6.30;;;2.00;;
59093;SDS011;44880;52.814;18.270;2023-04-25T04:01:32;6.70;;;2.40;;
59093;SDS011;44880;52.814;18.270;2023-04-25T04:04:08;7.30;;;2.60;;
59093;SDS011;44880;52.814;18.270;2023-04-25T04:06:41;6.50;;;2.60;;
59093;SDS011;44880;52.814;18.270;2023-04-25T04:09:28;6.70;;;2.00;;
59093;SDS011;44880;52.814;18.270;2023-04-25T04:12:02;6.70;;;2.30;;
59093;SDS011;44880;52.814;18.270;2023-04-25T04:14:35;6.60;;;1.90;;
59093;SDS011;44880;52.814;18.270;2023-04-25T04:17:11;8.40;;;2.20;;
59093;SDS011;44880;52.814;18.270;2023-04-25T04:19:44;6.20;;;2.20;;
59093;SDS011;44880;52.814;18.270;2023-04-25T04:22:20;6.20;;;2.00;;
59093;SDS011;44880;52.814;18.270;2023-04-25T04:24:53;6.20;;;2.30;;
59093;SDS011;44880;52.814;18.270;2023-04-25T04:27:45;7.20;;;2.10;;
59093;SDS011;44880;52.814;18.270;2023-04-25T04:30:32;5.90;;;1.80;;
59093;SDS011;44880;52.814;18.270;2023-04-25T04:33:09;6.80;;;2.20;;
59093;SDS011;44880;52.814;18.270;2023-04-25T04:35:41;6.80;;;2.10;;
59093;SDS011;44880;52.814;18.270;2023-04-25T04:41:03;6.80;;;2.60;;
59093;SDS011;44880;52.814;18.270;2023-04-25T04:43:50;6.60;;;2.30;;
59093;SDS011;44880;52.814;18.270;2023-04-25T04:46:32;7.20;;;2.10;;
59093;SDS011;44880;52.814;18.270;2023-04-25T04:49:15;6.30;;;2.40;;
59093;SDS011;44880;52.814;18.270;2023-04-25T04:52:29;7.10;;;3.00;;
59093;SDS011;44880;52.814;18.270;2023-04-25T04:55:22;7.80;;;2.60;;
59093;SDS011;44880;52.814;18.270;2023-04-25T04:58:23;7.90;;;3.00;;
59093;SDS011;44880;52.814;18.270;2023-04-25T05:01:20;9.90;;;2.70;;
59093;SDS011;44880;52.814;18.270;2023-04-25T05:04:55;7.80;;;3.00;;
59093;SDS011;44880;52.814;18.270;2023-04-25T05:07:59;7.60;;;2.60;;
59093;SDS011;44880;52.814;18.270;2023-04-25T05:10:56;7.50;;;2.90;;
59093;SDS011;44880;52.814;18.270;2023-04-25T05:14:01;7.70;;;2.90;;
59093;SDS011;44880;52.814;18.270;2023-04-25T05:16:59;9.60;;;3.10;;
59093;SDS011;44880;52.814;18.270;2023-04-25T05:20:08;7.70;;;2.90;;
59093;SDS011;44880;52.814;18.270;2023-04-25T05:23:08;8.30;;;3.10;;
59093;SDS011;44880;52.814;18.270;2023-04-25T05:26:09;8.60;;;3.60;;
59093;SDS011;44880;52.814;18.270;2023-04-25T05:29:05;8.70;;;3.20;;
59093;SDS011;44880;52.814;18.270;2023-04-25T05:31:47;8.70;;;3.10;;
59093;SDS011;44880;52.814;18.270;2023-04-25T05:34:23;7.60;;;2.60;;
59093;SDS011;44880;52.814;18.270;2023-04-25T05:37:13;10.10;;;3.40;;
59093;SDS011;44880;52.814;18.270;2023-04-25T05:39:56;8.20;;;3.40;;
59093;SDS011;44880;52.814;18.270;2023-04-25T05:42:49;7.50;;;3.10;;
59093;SDS011;44880;52.814;18.270;2023-04-25T05:45:23;8.20;;;3.60;;
59093;SDS011;44880;52.814;18.270;2023-04-25T05:48:01;9.30;;;4.10;;
59093;SDS011;44880;52.814;18.270;2023-04-25T05:50:45;8.50;;;3.20;;
59093;SDS011;44880;52.814;18.270;2023-04-25T05:53:39;8.50;;;3.20;;
59093;SDS011;44880;52.814;18.270;2023-04-25T05:56:26;10.20;;;4.10;;
59093;SDS011;44880;52.814;18.270;2023-04-25T05:58:58;10.60;;;5.20;;
59093;SDS011;44880;52.814;18.270;2023-04-25T06:01:31;9.90;;;4.40;;
59093;SDS011;44880;52.814;18.270;2023-04-25T06:04:07;8.50;;;4.20;;
59093;SDS011;44880;52.814;18.270;2023-04-25T06:06:40;10.10;;;4.20;;
59093;SDS011;44880;52.814;18.270;2023-04-25T06:09:12;12.60;;;4.40;;
59093;SDS011;44880;52.814;18.270;2023-04-25T06:14:29;8.60;;;4.00;;
59093;SDS011;44880;52.814;18.270;2023-04-25T06:26:58;9.30;;;4.00;;
59093;SDS011;44880;52.814;18.270;2023-04-25T06:29:30;8.50;;;3.70;;
59093;SDS011;44880;52.814;18.270;2023-04-25T06:34:49;9.70;;;4.30;;
59093;SDS011;44880;52.814;18.270;2023-04-25T06:37:21;11.00;;;4.30;;
59093;SDS011;44880;52.814;18.270;2023-04-25T06:42:41;11.50;;;4.40;;
59093;SDS011;44880;52.814;18.270;2023-04-25T06:45:49;9.70;;;4.30;;
59093;SDS011;44880;52.814;18.270;2023-04-25T06:48:21;8.80;;;4.40;;
59093;SDS011;44880;52.814;18.270;2023-04-25T06:50:55;9.10;;;4.30;;
59093;SDS011;44880;52.814;18.270;2023-04-25T06:58:57;9.40;;;3.90;;
59093;SDS011;44880;52.814;18.270;2023-04-25T07:01:48;9.10;;;4.60;;
59093;SDS011;44880;52.814;18.270;2023-04-25T07:04:23;9.50;;;4.00;;
59093;SDS011;44880;52.814;18.270;2023-04-25T07:07:15;9.50;;;3.90;;
59093;SDS011;44880;52.814;18.270;2023-04-25T07:09:53;10.40;;;4.40;;
59093;SDS011;44880;52.814;18.270;2023-04-25T07:12:25;10.60;;;4.50;;
59093;SDS011;44880;52.814;18.270;2023-04-25T07:15:09;9.70;;;3.90;;
59093;SDS011;44880;52.814;18.270;2023-04-25T07:17:46;9.70;;;4.00;;
59093;SDS011;44880;52.814;18.270;2023-04-25T07:20:21;7.90;;;3.90;;
59093;SDS011;44880;52.814;18.270;2023-04-25T07:23:07;8.40;;;4.10;;
59093;SDS011;44880;52.814;18.270;2023-04-25T07:25:39;8.20;;;4.10;;
59093;SDS011;44880;52.814;18.270;2023-04-25T07:28:12;10.20;;;4.10;;
59093;SDS011;44880;52.814;18.270;2023-04-25T07:33:39;9.90;;;4.90;;
59093;SDS011;44880;52.814;18.270;2023-04-25T07:36:11;13.00;;;7.80;;
59093;SDS011;44880;52.814;18.270;2023-04-25T07:39:01;10.70;;;4.90;;
59093;SDS011;44880;52.814;18.270;2023-04-25T07:44:03;8.50;;;3.60;;
59093;SDS011;44880;52.814;18.270;2023-04-25T07:46:50;10.90;;;6.50;;
59093;SDS011;44880;52.814;18.270;2023-04-25T07:49:21;9.10;;;4.50;;
59093;SDS011;44880;52.814;18.270;2023-04-25T07:51:53;8.60;;;4.60;;
59093;SDS011;44880;52.814;18.270;2023-04-25T07:54:30;9.20;;;5.00;;
59093;SDS011;44880;52.814;18.270;2023-04-25T07:57:07;9.30;;;4.30;;
59093;SDS011;44880;52.814;18.270;2023-04-25T07:59:40;10.10;;;4.90;;
59093;SDS011;44880;52.814;18.270;2023-04-25T08:02:22;8.10;;;4.50;;
59093;SDS011;44880;52.814;18.270;2023-04-25T08:04:57;10.70;;;4.40;;
59093;SDS011;44880;52.814;18.270;2023-04-25T08:12:51;15.00;;;9.90;;
59093;SDS011;44880;52.814;18.270;2023-04-25T08:15:23;15.00;;;8.70;;
59093;SDS011;44880;52.814;18.270;2023-04-25T08:20:51;12.30;;;7.10;;
59093;SDS011;44880;52.814;18.270;2023-04-25T08:26:19;9.60;;;5.50;;
59093;SDS011;44880;52.814;18.270;2023-04-25T08:28:52;9.30;;;4.40;;
59093;SDS011;44880;52.814;18.270;2023-04-25T08:34:16;10.10;;;4.60;;
59093;SDS011;44880;52.814;18.270;2023-04-25T08:36:52;7.60;;;4.20;;
59093;SDS011;44880;52.814;18.270;2023-04-25T08:39:47;8.90;;;4.40;;
59093;SDS011;44880;52.814;18.270;2023-04-25T08:45:40;8.20;;;4.20;;
59093;SDS011;44880;52.814;18.270;2023-04-25T08:48:17;8.30;;;4.10;;
59093;SDS011;44880;52.814;18.270;2023-04-25T08:51:22;11.40;;;4.40;;
59093;SDS011;44880;52.814;18.270;2023-04-25T08:56:57;7.80;;;3.20;;
59093;SDS011;44880;52.814;18.270;2023-04-25T08:59:32;10.30;;;4.20;;
59093;SDS011;44880;52.814;18.270;2023-04-25T09:02:35;9.00;;;4.30;;
59093;SDS011;44880;52.814;18.270;2023-04-25T09:05:07;8.20;;;4.00;;
59093;SDS011;44880;52.814;18.270;2023-04-25T09:08:22;9.10;;;4.20;;
59093;SDS011;44880;52.814;18.270;2023-04-25T09:13:54;7.70;;;3.90;;
59093;SDS011;44880;52.814;18.270;2023-04-25T09:17:22;8.30;;;3.50;;
59093;SDS011;44880;52.814;18.270;2023-04-25T09:23:04;8.90;;;4.50;;
59093;SDS011;44880;52.814;18.270;2023-04-25T09:28:35;8.70;;;5.20;;
59093;SDS011;44880;52.814;18.270;2023-04-25T09:34:12;8.30;;;4.30;;
59093;SDS011;44880;52.814;18.270;2023-04-25T09:44:27;8.70;;;4.30;;
59093;SDS011;44880;52.814;18.270;2023-04-25T09:49:53;7.90;;;3.90;;
59093;SDS011;44880;52.814;18.270;2023-04-25T09:52:25;7.70;;;3.90;;
59093;SDS011;44880;52.814;18.270;2023-04-25T09:55:40;8.70;;;4.00;;
59093;SDS011;44880;52.814;18.270;2023-04-25T10:05:53;9.70;;;3.90;;
59093;SDS011;44880;52.814;18.270;2023-04-25T10:11:20;8.50;;;4.50;;
59093;SDS011;44880;52.814;18.270;2023-04-25T10:13:53;9.50;;;4.70;;
59093;SDS011;44880;52.814;18.270;2023-04-25T10:16:53;9.20;;;4.60;;
59093;SDS011;44880;52.814;18.270;2023-04-25T10:19:27;8.50;;;4.30;;
59093;SDS011;44880;52.814;18.270;2023-04-25T10:25:03;8.40;;;3.40;;
59093;SDS011;44880;52.814;18.270;2023-04-25T10:30:32;8.50;;;3.70;;
59093;SDS011;44880;52.814;18.270;2023-04-25T10:36:14;10.20;;;3.70;;
59093;SDS011;44880;52.814;18.270;2023-04-25T10:41:47;8.10;;;3.50;;
59093;SDS011;44880;52.814;18.270;2023-04-25T10:47:36;6.30;;;2.40;;
59093;SDS011;44880;52.814;18.270;2023-04-25T10:50:42;7.30;;;2.80;;
59093;SDS011;44880;52.814;18.270;2023-04-25T10:53:17;8.20;;;2.70;;
59093;SDS011;44880;52.814;18.270;2023-04-25T10:58:43;5.60;;;1.80;;
59093;SDS011;44880;52.814;18.270;2023-04-25T11:04:22;6.10;;;2.10;;
59093;SDS011;44880;52.814;18.270;2023-04-25T11:09:53;8.40;;;2.30;;
59093;SDS011;44880;52.814;18.270;2023-04-25T11:12:25;7.40;;;2.60;;
59093;SDS011;44880;52.814;18.270;2023-04-25T11:15:36;7.10;;;2.90;;
59093;SDS011;44880;52.814;18.270;2023-04-25T11:21:13;7.50;;;2.50;;
59093;SDS011;44880;52.814;18.270;2023-04-25T11:26:44;8.20;;;2.90;;
59093;SDS011;44880;52.814;18.270;2023-04-25T11:29:18;9.00;;;3.10;;
59093;SDS011;44880;52.814;18.270;2023-04-25T11:32:23;7.70;;;2.80;;
59093;SDS011;44880;52.814;18.270;2023-04-25T11:34:55;8.60;;;2.90;;
59093;SDS011;44880;52.814;18.270;2023-04-25T11:40:37;7.70;;;2.90;;
59093;SDS011;44880;52.814;18.270;2023-04-25T11:43:42;8.40;;;3.10;;
59093;SDS011;44880;52.814;18.270;2023-04-25T11:46:19;8.20;;;3.50;;
59093;SDS011;44880;52.814;18.270;2023-04-25T11:49:19;7.10;;;2.90;;
59093;SDS011;44880;52.814;18.270;2023-04-25T11:51:54;8.30;;;3.50;;
59093;SDS011;44880;52.814;18.270;2023-04-25T11:55:02;9.00;;;3.30;;
59093;SDS011;44880;52.814;18.270;2023-04-25T12:00:35;8.10;;;3.70;;
59093;SDS011;44880;52.814;18.270;2023-04-25T12:03:09;7.90;;;3.50;;
59093;SDS011;44880;52.814;18.270;2023-04-25T12:06:20;8.60;;;3.50;;
59093;SDS011;44880;52.814;18.270;2023-04-25T12:11:58;8.60;;;3.50;;
59093;SDS011;44880;52.814;18.270;2023-04-25T12:17:38;9.20;;;3.50;;
59093;SDS011;44880;52.814;18.270;2023-04-25T12:23:10;8.20;;;3.60;;
59093;SDS011;44880;52.814;18.270;2023-04-25T12:28:48;8.30;;;3.60;;
59093;SDS011;44880;52.814;18.270;2023-04-25T12:36:54;7.70;;;3.30;;
59093;SDS011;44880;52.814;18.270;2023-04-25T12:39:41;8.00;;;3.40;;
59093;SDS011;44880;52.814;18.270;2023-04-25T12:42:16;6.80;;;2.90;;
59093;SDS011;44880;52.814;18.270;2023-04-25T12:50:10;8.20;;;3.50;;
59093;SDS011;44880;52.814;18.270;2023-04-25T12:52:42;9.00;;;3.80;;
59093;SDS011;44880;52.814;18.270;2023-04-25T12:55:51;8.70;;;3.90;;
59093;SDS011;44880;52.814;18.270;2023-04-25T13:01:24;10.90;;;5.60;;
59093;SDS011;44880;52.814;18.270;2023-04-25T13:09:22;8.30;;;3.30;;
59093;SDS011;44880;52.814;18.270;2023-04-25T13:14:59;10.20;;;5.70;;
59093;SDS011;44880;52.814;18.270;2023-04-25T13:17:33;7.80;;;3.30;;
59093;SDS011;44880;52.814;18.270;2023-04-25T13:20:33;7.20;;;3.10;;
59093;SDS011;44880;52.814;18.270;2023-04-25T13:23:06;8.50;;;2.80;;
59093;SDS011;44880;52.814;18.270;2023-04-25T13:26:16;7.80;;;2.80;;
59093;SDS011;44880;52.814;18.270;2023-04-25T13:31:50;8.30;;;3.30;;
59093;SDS011;44880;52.814;18.270;2023-04-25T13:34:24;10.20;;;5.40;;
59093;SDS011;44880;52.814;18.270;2023-04-25T13:37:32;12.70;;;7.60;;
59093;SDS011;44880;52.814;18.270;2023-04-25T13:43:23;9.70;;;4.50;;
59093;SDS011;44880;52.814;18.270;2023-04-25T13:46:24;7.40;;;3.50;;
59093;SDS011;44880;52.814;18.270;2023-04-25T13:48:57;7.90;;;3.50;;
59093;SDS011;44880;52.814;18.270;2023-04-25T13:54:23;8.20;;;3.10;;
59093;SDS011;44880;52.814;18.270;2023-04-25T14:00:00;8.70;;;3.80;;
59093;SDS011;44880;52.814;18.270;2023-04-25T14:05:35;11.40;;;4.50;;
59093;SDS011;44880;52.814;18.270;2023-04-25T14:08:08;9.80;;;4.90;;
59093;SDS011;44880;52.814;18.270;2023-04-25T14:13:47;10.70;;;4.60;;
59093;SDS011;44880;52.814;18.270;2023-04-25T14:19:17;8.80;;;4.20;;
59093;SDS011;44880;52.814;18.270;2023-04-25T14:24:47;8.80;;;4.00;;
59093;SDS011;44880;52.814;18.270;2023-04-25T14:27:19;9.40;;;4.70;;
59093;SDS011;44880;52.814;18.270;2023-04-25T14:30:24;10.30;;;5.20;;
59093;SDS011;44880;52.814;18.270;2023-04-25T14:32:56;12.90;;;5.20;;
59093;SDS011;44880;52.814;18.270;2023-04-25T14:36:07;11.20;;;4.80;;
59093;SDS011;44880;52.814;18.270;2023-04-25T14:41:59;8.00;;;3.20;;
59093;SDS011;44880;52.814;18.270;2023-04-25T14:45:13;7.10;;;2.70;;
59093;SDS011;44880;52.814;18.270;2023-04-25T14:50:40;8.70;;;2.80;;
59093;SDS011;44880;52.814;18.270;2023-04-25T14:53:13;6.10;;;2.20;;
59093;SDS011;44880;52.814;18.270;2023-04-25T14:56:17;5.90;;;2.20;;
59093;SDS011;44880;52.814;18.270;2023-04-25T14:58:49;5.40;;;2.00;;
59093;SDS011;44880;52.814;18.270;2023-04-25T15:04:20;12.80;;;2.90;;
59093;SDS011;44880;52.814;18.270;2023-04-25T15:09:54;6.80;;;2.20;;
59093;SDS011;44880;52.814;18.270;2023-04-25T15:12:35;7.00;;;2.30;;
59093;SDS011;44880;52.814;18.270;2023-04-25T15:15:27;7.20;;;2.30;;
59093;SDS011;44880;52.814;18.270;2023-04-25T15:17:59;7.10;;;2.50;;
59093;SDS011;44880;52.814;18.270;2023-04-25T15:21:12;8.30;;;2.60;;
59093;SDS011;44880;52.814;18.270;2023-04-25T15:26:44;8.30;;;3.20;;
59093;SDS011;44880;52.814;18.270;2023-04-25T15:29:18;7.40;;;3.00;;
59093;SDS011;44880;52.814;18.270;2023-04-25T15:32:33;11.20;;;5.80;;
59093;SDS011;44880;52.814;18.270;2023-04-25T15:38:03;15.50;;;8.00;;
59093;SDS011;44880;52.814;18.270;2023-04-25T15:43:39;34.90;;;21.20;;
59093;SDS011;44880;52.814;18.270;2023-04-25T15:46:15;35.90;;;24.40;;
59093;SDS011;44880;52.814;18.270;2023-04-25T15:49:30;14.30;;;9.60;;
59093;SDS011;44880;52.814;18.270;2023-04-25T15:52:42;11.50;;;6.40;;
59093;SDS011;44880;52.814;18.270;2023-04-25T15:55:19;19.20;;;11.70;;
59093;SDS011;44880;52.814;18.270;2023-04-25T15:58:16;15.50;;;9.80;;
59093;SDS011;44880;52.814;18.270;2023-04-25T16:04:02;9.80;;;4.10;;
59093;SDS011;44880;52.814;18.270;2023-04-25T16:09:41;14.40;;;10.60;;
59093;SDS011;44880;52.814;18.270;2023-04-25T16:15:12;34.70;;;16.90;;
59093;SDS011;44880;52.814;18.270;2023-04-25T16:17:44;12.90;;;6.70;;
59093;SDS011;44880;52.814;18.270;2023-04-25T16:21:01;13.30;;;5.90;;
59093;SDS011;44880;52.814;18.270;2023-04-25T16:28:55;13.80;;;5.10;;
59093;SDS011;44880;52.814;18.270;2023-04-25T16:34:19;11.80;;;4.00;;
59093;SDS011;44880;52.814;18.270;2023-04-25T16:36:56;27.60;;;13.00;;
59093;SDS011;44880;52.814;18.270;2023-04-25T16:39:37;13.70;;;5.40;;
59093;SDS011;44880;52.814;18.270;2023-04-25T16:42:09;12.50;;;5.20;;
59093;SDS011;44880;52.814;18.270;2023-04-25T16:44:42;14.60;;;8.90;;
59093;SDS011;44880;52.814;18.270;2023-04-25T16:47:35;16.10;;;8.40;;
59093;SDS011;44880;52.814;18.270;2023-04-25T16:50:07;26.30;;;13.40;;
59093;SDS011;44880;52.814;18.270;2023-04-25T16:52:41;27.30;;;14.50;;
59093;SDS011;44880;52.814;18.270;2023-04-25T16:55:39;18.40;;;8.60;;
59093;SDS011;44880;52.814;18.270;2023-04-25T16:58:10;20.80;;;12.70;;
59093;SDS011;44880;52.814;18.270;2023-04-25T17:03:36;20.20;;;9.70;;
59093;SDS011;44880;52.814;18.270;2023-04-25T17:06:08;14.50;;;9.00;;
59093;SDS011;44880;52.814;18.270;2023-04-25T17:09:01;14.60;;;9.00;;
59093;SDS011;44880;52.814;18.270;2023-04-25T17:11:34;12.90;;;6.10;;
59093;SDS011;44880;52.814;18.270;2023-04-25T17:17:07;21.90;;;12.20;;
59093;SDS011;44880;52.814;18.270;2023-04-25T17:19:40;13.80;;;7.50;;
59093;SDS011;44880;52.814;18.270;2023-04-25T17:22:43;10.70;;;5.30;;
59093;SDS011;44880;52.814;18.270;2023-04-25T17:25:17;12.80;;;5.90;;
59093;SDS011;44880;52.814;18.270;2023-04-25T17:27:56;10.10;;;4.50;;
59093;SDS011;44880;52.814;18.270;2023-04-25T17:30:38;10.60;;;4.70;;
59093;SDS011;44880;52.814;18.270;2023-04-25T17:36:16;13.60;;;6.00;;
59093;SDS011;44880;52.814;18.270;2023-04-25T17:38:53;13.10;;;6.60;;
59093;SDS011;44880;52.814;18.270;2023-04-25T17:41:58;14.40;;;7.10;;
59093;SDS011;44880;52.814;18.270;2023-04-25T17:47:06;8.20;;;4.30;;
59093;SDS011;44880;52.814;18.270;2023-04-25T17:49:39;10.60;;;4.40;;
59093;SDS011;44880;52.814;18.270;2023-04-25T17:54:41;9.90;;;4.30;;
59093;SDS011;44880;52.814;18.270;2023-04-25T17:57:13;13.60;;;6.20;;
59093;SDS011;44880;52.814;18.270;2023-04-25T17:59:46;14.30;;;5.40;;
59093;SDS011;44880;52.814;18.270;2023-04-25T18:02:23;11.00;;;4.40;;
59093;SDS011;44880;52.814;18.270;2023-04-25T18:04:56;12.50;;;4.60;;
59093;SDS011;44880;52.814;18.270;2023-04-25T18:07:27;10.50;;;3.40;;
59093;SDS011;44880;52.814;18.270;2023-04-25T18:09:59;11.10;;;4.00;;
59093;SDS011;44880;52.814;18.270;2023-04-25T18:12:33;14.00;;;4.80;;
59093;SDS011;44880;52.814;18.270;2023-04-25T18:15:09;12.60;;;6.40;;
59093;SDS011;44880;52.814;18.270;2023-04-25T18:17:41;12.90;;;4.80;;
59093;SDS011;44880;52.814;18.270;2023-04-25T18:20:15;13.80;;;5.60;;
59093;SDS011;44880;52.814;18.270;2023-04-25T18:22:51;13.20;;;4.40;;
59093;SDS011;44880;52.814;18.270;2023-04-25T18:25:26;11.80;;;4.40;;
59093;SDS011;44880;52.814;18.270;2023-04-25T18:27:58;17.80;;;4.70;;
59093;SDS011;44880;52.814;18.270;2023-04-25T18:35:33;14.00;;;5.50;;
59093;SDS011;44880;52.814;18.270;2023-04-25T18:38:07;12.80;;;5.50;;
59093;SDS011;44880;52.814;18.270;2023-04-25T18:40:44;15.30;;;7.10;;
59093;SDS011;44880;52.814;18.270;2023-04-25T18:43:18;12.70;;;6.10;;
59093;SDS011;44880;52.814;18.270;2023-04-25T18:45:52;15.90;;;7.70;;
59093;SDS011;44880;52.814;18.270;2023-04-25T18:48:24;14.40;;;6.00;;
59093;SDS011;44880;52.814;18.270;2023-04-25T18:50:57;14.10;;;5.40;;
59093;SDS011;44880;52.814;18.270;2023-04-25T18:53:30;14.80;;;6.20;;
59093;SDS011;44880;52.814;18.270;2023-04-25T18:56:03;15.30;;;6.10;;
59093;SDS011;44880;52.814;18.270;2023-04-25T18:58:36;14.30;;;6.80;;
59093;SDS011;44880;52.814;18.270;2023-04-25T19:01:09;13.30;;;5.10;;
59093;SDS011;44880;52.814;18.270;2023-04-25T19:03:43;13.60;;;5.20;;
59093;SDS011;44880;52.814;18.270;2023-04-25T19:06:24;12.00;;;5.00;;
59093;SDS011;44880;52.814;18.270;2023-04-25T19:08:58;12.40;;;3.90;;
59093;SDS011;44880;52.814;18.270;2023-04-25T19:11:30;11.70;;;4.40;;
59093;SDS011;44880;52.814;18.270;2023-04-25T19:14:06;14.20;;;4.40;;
59093;SDS011;44880;52.814;18.270;2023-04-25T19:16:41;15.50;;;4.30;;
59093;SDS011;44880;52.814;18.270;2023-04-25T19:19:18;12.10;;;4.80;;
59093;SDS011;44880;52.814;18.270;2023-04-25T19:21:53;11.00;;;4.20;;
59093;SDS011;44880;52.814;18.270;2023-04-25T19:24:29;11.70;;;4.80;;
59093;SDS011;44880;52.814;18.270;2023-04-25T19:27:02;10.50;;;4.50;;
59093;SDS011;44880;52.814;18.270;2023-04-25T19:32:13;15.80;;;4.60;;
59093;SDS011;44880;52.814;18.270;2023-04-25T19:34:46;14.50;;;4.60;;
59093;SDS011;44880;52.814;18.270;2023-04-25T19:37:19;11.50;;;4.00;;
59093;SDS011;44880;52.814;18.270;2023-04-25T19:39:56;13.30;;;4.80;;
59093;SDS011;44880;52.814;18.270;2023-04-25T19:42:29;11.20;;;3.60;;
59093;SDS011;44880;52.814;18.270;2023-04-25T19:45:01;12.00;;;4.10;;
59093;SDS011;44880;52.814;18.270;2023-04-25T19:47:39;12.40;;;5.00;;
59093;SDS011;44880;52.814;18.270;2023-04-25T19:50:12;12.50;;;4.50;;